Time;durP1;ratioP1;P1;durP2;ratioP2;P2;SDS_P1;SDS_P2;PMS_P1;PMS_P2;Temp;Humidity;BMP_temperature;BMP_pressure;BME280_temperature;BME280_humidity;BME280_pressure;Samples;Min_cycle;Max_cycle;Signal;HPM_P1;HPM_P2
2022/01/07 00:18:31;;;;;;;23.88;9.20;;;;;;;1.76;87.13;101098.19;4970591;28;20088;-82
2022/01/07 01:41:37;;;;;;;24.60;9.48;;;;;;;1.85;86.57;100986.69;4924261;28;20052;-81
2022/01/07 01:47:37;;;;;;;24.40;9.43;;;;;;;1.99;86.38;101002.16;4923923;28;20505;-80
2022/01/07 01:50:05;;;;;;;22.63;9.35;;;;;;;1.97;86.58;100991.09;5027123;23;20038;-83
2022/01/07 01:52:31;;;;;;;19.73;9.68;;;;;;;1.98;86.10;100992.75;5016560;28;20049;-85
2022/01/07 01:54:58;;;;;;;19.75;9.38;;;;;;;1.97;86.45;100989.34;5015871;28;20132;-81
2022/01/07 01:57:25;;;;;;;18.38;9.15;;;;;;;2.03;86.11;100990.75;5015734;28;20080;-81
2022/01/07 01:59:51;;;;;;;24.48;9.93;;;;;;;2.04;86.35;100994.97;5005312;28;20137;-81
2022/01/07 02:02:18;;;;;;;22.20;8.88;;;;;;;2.09;86.33;100977.47;4997613;28;20252;-82
2022/01/07 02:04:46;;;;;;;18.85;10.15;;;;;;;2.02;86.60;100978.75;5003626;28;20082;-84
2022/01/07 02:07:13;;;;;;;17.95;9.15;;;;;;;2.01;86.49;100964.19;5012857;28;20061;-83
2022/01/07 02:09:41;;;;;;;15.52;8.85;;;;;;;2.10;86.25;100968.78;4997384;28;20060;-81
2022/01/07 02:12:09;;;;;;;21.02;9.85;;;;;;;2.04;87.00;100968.34;4998635;28;20061;-82
2022/01/07 02:14:37;;;;;;;19.85;9.70;;;;;;;1.99;87.34;100966.03;4997587;28;20053;-82
2022/01/07 02:17:06;;;;;;;20.05;8.98;;;;;;;2.06;87.22;100971.66;4995245;28;20137;-83
2022/01/07 02:19:34;;;;;;;19.85;9.70;;;;;;;2.04;87.91;100964.00;4996282;28;20053;-82
2022/01/07 02:22:01;;;;;;;16.77;9.30;;;;;;;2.10;87.49;100963.63;4997921;28;20048;-82
2022/01/07 02:24:28;;;;;;;18.35;9.75;;;;;;;2.08;87.76;100959.50;4999204;28;20089;-81
2022/01/07 02:26:56;;;;;;;13.98;9.07;;;;;;;2.07;87.70;100952.66;5005047;28;20074;-81
2022/01/07 02:29:23;;;;;;;16.75;9.80;;;;;;;2.08;87.90;100960.31;5013973;28;20078;-83
2022/01/07 02:31:49;;;;;;;19.63;9.90;;;;;;;1.99;88.41;100953.13;5029435;28;20084;-81
2022/01/07 02:34:16;;;;;;;17.67;9.20;;;;;;;2.08;88.98;100950.00;5033976;28;20030;-83
2022/01/07 02:36:44;;;;;;;18.38;9.40;;;;;;;2.04;88.54;100943.34;5033410;28;20073;-82
2022/01/07 02:39:11;;;;;;;18.05;8.48;;;;;;;2.06;88.42;100932.94;5034691;28;20081;-83
2022/01/07 02:41:37;;;;;;;16.00;9.07;;;;;;;2.05;88.58;100937.28;5033647;28;20081;-81
2022/01/07 02:44:04;;;;;;;18.30;8.48;;;;;;;2.10;88.69;100917.16;5020313;28;20556;-82
2022/01/07 02:46:31;;;;;;;17.20;8.13;;;;;;;2.19;88.22;100931.25;5016774;28;20082;-83
2022/01/07 02:48:58;;;;;;;15.70;8.52;;;;;;;2.17;88.63;100917.63;5023554;28;20109;-81
2022/01/07 02:51:24;;;;;;;12.07;7.82;;;;;;;2.11;88.66;100926.56;5023168;28;20132;-82
2022/01/07 02:53:54;;;;;;;14.38;9.20;;;;;;;2.08;88.84;100921.59;5023692;28;20136;-82
2022/01/07 02:56:21;;;;;;;14.95;8.50;;;;;;;2.09;89.49;100920.69;5022702;28;20113;-82
2022/01/07 02:58:48;;;;;;;16.30;9.00;;;;;;;2.11;89.20;100924.00;5022484;28;20077;-83
2022/01/07 03:01:14;;;;;;;14.00;8.27;;;;;;;2.07;89.36;100912.19;5023699;28;20148;-82
2022/01/07 03:03:41;;;;;;;15.98;8.65;;;;;;;1.99;90.16;100904.91;5018242;28;20085;-81
2022/01/07 03:06:08;;;;;;;16.35;8.50;;;;;;;1.99;90.51;100899.75;5024958;28;20081;-81
2022/01/07 03:08:35;;;;;;;16.77;8.55;;;;;;;1.98;90.30;100889.53;5023182;28;20108;-83
2022/01/07 03:11:03;;;;;;;15.95;8.63;;;;;;;1.94;90.05;100885.47;5025900;28;20073;-80
2022/01/07 03:13:29;;;;;;;16.45;8.13;;;;;;;1.90;90.43;100876.25;5028959;28;20061;-82
2022/01/07 03:15:56;;;;;;;14.75;7.90;;;;;;;1.85;90.55;100870.59;5027932;28;20049;-82
2022/01/07 03:18:22;;;;;;;12.90;8.30;;;;;;;1.85;91.18;100871.41;5018883;28;20085;-81
2022/01/07 03:20:49;;;;;;;14.05;7.55;;;;;;;1.83;91.10;100867.28;5002708;28;20133;-79
2022/01/07 03:23:16;;;;;;;13.82;8.13;;;;;;;1.81;91.56;100859.63;4999793;28;20054;-79
2022/01/07 03:25:45;;;;;;;16.27;7.70;;;;;;;1.76;90.68;100865.97;4999782;28;20054;-79
2022/01/07 03:28:13;;;;;;;12.07;7.85;;;;;;;1.82;91.05;100855.28;5001622;28;20050;-80
2022/01/07 03:30:40;;;;;;;11.70;7.30;;;;;;;1.76;91.33;100853.09;5007453;28;20054;-82
2022/01/07 03:33:07;;;;;;;13.70;7.75;;;;;;;1.71;91.27;100843.03;5003629;28;20133;-81
2022/01/07 03:35:34;;;;;;;14.63;7.97;;;;;;;1.76;91.11;100840.19;5017359;28;20083;-81
2022/01/07 03:38:01;;;;;;;14.02;8.07;;;;;;;1.73;91.68;100828.31;5019913;28;20113;-79
2022/01/07 03:40:28;;;;;;;15.30;8.35;;;;;;;1.70;90.92;100820.75;5024430;28;20077;-81
2022/01/07 03:42:54;;;;;;;14.60;8.48;;;;;;;1.72;91.16;100812.91;5027711;28;20050;-81
2022/01/07 03:45:23;;;;;;;19.05;8.38;;;;;;;1.77;90.71;100805.72;5025027;28;20420;-80
2022/01/07 03:47:51;;;;;;;15.05;7.90;;;;;;;1.77;91.01;100805.72;5026541;28;20069;-77
2022/01/07 03:50:20;;;;;;;18.17;9.02;;;;;;;1.76;90.71;100788.59;5012331;28;20138;-79
2022/01/07 03:52:48;;;;;;;21.17;8.70;;;;;;;1.76;90.78;100786.00;5004738;28;20194;-80
2022/01/07 03:55:18;;;;;;;17.00;9.00;;;;;;;1.78;91.21;100781.59;5002722;28;20077;-81
2022/01/07 03:57:45;;;;;;;17.40;8.90;;;;;;;1.81;90.94;100776.22;5000682;28;20057;-82
2022/01/07 04:00:16;;;;;;;14.82;8.50;;;;;;;1.81;90.68;100781.41;5002367;28;20176;-82
2022/01/07 04:02:45;;;;;;;18.65;8.70;;;;;;;1.82;90.79;100776.13;5001978;28;20142;-81
2022/01/07 04:05:13;;;;;;;16.70;8.45;;;;;;;1.87;90.98;100775.84;5004373;28;20114;-81
2022/01/07 04:07:40;;;;;;;16.33;8.55;;;;;;;1.87;91.48;100781.84;5004584;28;20062;-83
2022/01/07 04:10:07;;;;;;;15.18;8.40;;;;;;;1.87;91.41;100775.84;5001382;28;20492;-82
2022/01/07 04:12:34;;;;;;;18.13;8.40;;;;;;;1.96;90.94;100764.91;5005214;28;20129;-81
2022/01/07 04:15:08;;;;;;;20.70;9.35;;;;;;;1.96;91.28;100770.91;5001696;28;20204;-82
2022/01/07 04:17:36;;;;;;;15.93;9.52;;;;;;;1.95;92.24;100776.16;5001452;28;20492;-82
2022/01/07 04:20:05;;;;;;;15.23;9.15;;;;;;;1.90;91.67;100762.72;5000156;28;20050;-80
2022/01/07 04:22:33;;;;;;;15.30;8.60;;;;;;;1.86;91.36;100769.84;5011174;28;20109;-81
2022/01/07 04:24:59;;;;;;;15.98;7.93;;;;;;;1.85;91.38;100757.88;5021592;28;20060;-80
2022/01/07 04:27:26;;;;;;;14.25;8.10;;;;;;;1.80;91.33;100769.41;5018315;28;20077;-81
2022/01/07 04:29:52;;;;;;;17.30;8.55;;;;;;;1.75;91.66;100767.13;5017887;28;20092;-82
2022/01/07 04:32:19;;;;;;;23.63;8.85;;;;;;;1.78;92.02;100760.94;5019043;28;20132;-82
2022/01/07 04:34:46;;;;;;;15.73;7.95;;;;;;;1.82;91.75;100757.25;5018303;28;20416;-82
2022/01/07 04:37:14;;;;;;;16.05;8.40;;;;;;;1.77;91.87;100752.38;5013143;28;20128;-82
2022/01/07 04:39:40;;;;;;;17.23;8.40;;;;;;;1.82;91.86;100749.50;4996312;28;20133;-81
2022/01/07 04:42:07;;;;;;;19.63;8.50;;;;;;;1.83;91.49;100738.25;4997807;28;20133;-82
2022/01/07 04:44:35;;;;;;;17.15;8.52;;;;;;;1.82;91.22;100736.59;4999016;28;20141;-82
2022/01/07 04:47:02;;;;;;;15.10;8.02;;;;;;;1.87;90.67;100742.31;4998744;28;20361;-83
2022/01/07 04:49:28;;;;;;;13.23;8.05;;;;;;;1.91;91.60;100741.97;4997894;28;20061;-82
2022/01/07 04:51:55;;;;;;;16.45;8.13;;;;;;;1.95;90.59;100743.44;4998913;28;20502;-81
2022/01/07 04:54:23;;;;;;;17.73;8.10;;;;;;;1.97;90.25;100739.00;5011877;28;20081;-80
2022/01/07 04:56:50;;;;;;;15.52;7.95;;;;;;;2.05;90.65;100732.53;5018759;28;20401;-82
2022/01/07 04:59:17;;;;;;;14.35;7.90;;;;;;;2.05;90.96;100738.53;5019206;28;20113;-82
2022/01/07 05:01:45;;;;;;;13.57;8.10;;;;;;;1.97;90.10;100735.59;5019182;28;20054;-82
2022/01/07 05:04:11;;;;;;;14.88;7.15;;;;;;;2.03;89.25;100735.22;5019282;28;20117;-82
2022/01/07 05:06:44;;;;;;;13.38;7.30;;;;;;;1.99;89.90;100731.16;5019512;28;20105;-82
2022/01/07 05:09:12;;;;;;;14.32;7.10;;;;;;;2.04;89.92;100731.72;5007924;28;20377;-82
2022/01/07 05:11:40;;;;;;;17.40;8.07;;;;;;;2.12;89.86;100726.06;4999614;28;20051;-84
2022/01/07 05:14:07;;;;;;;17.50;7.80;;;;;;;2.03;88.96;100732.63;5000729;28;20097;-82
2022/01/07 05:16:34;;;;;;;12.13;6.80;;;;;;;2.08;88.91;100733.16;4998792;28;20046;-82
2022/01/07 05:19:04;;;;;;;13.02;7.63;;;;;;;2.07;88.88;100731.50;4997651;28;20085;-82
2022/01/07 05:21:31;;;;;;;17.30;7.53;;;;;;;2.13;89.34;100738.84;4998533;28;20050;-81
2022/01/07 05:23:58;;;;;;;15.02;7.22;;;;;;;2.21;90.21;100734.03;5000093;28;20508;-82
2022/01/07 05:26:27;;;;;;;12.35;7.40;;;;;;;2.09;90.10;100731.41;5016448;28;20140;-83
2022/01/07 05:28:55;;;;;;;14.60;7.97;;;;;;;2.11;90.12;100732.97;5019441;28;20081;-81
2022/01/07 05:31:23;;;;;;;16.08;7.72;;;;;;;2.11;90.86;100725.22;5018327;28;20141;-81
2022/01/07 05:33:50;;;;;;;14.70;7.63;;;;;;;2.06;90.44;100734.19;5018833;28;20056;-80
2022/01/07 05:36:17;;;;;;;14.95;7.97;;;;;;;2.09;91.15;100729.66;5019889;28;20068;-82
2022/01/07 05:38:44;;;;;;;17.25;7.65;;;;;;;2.02;91.10;100728.41;5018985;28;20124;-83
2022/01/07 05:41:10;;;;;;;16.33;8.13;;;;;;;2.01;91.08;100726.75;5008791;28;20046;-81
2022/01/07 05:43:39;;;;;;;10.57;7.47;;;;;;;2.00;91.16;100725.91;4998080;28;20637;-81
2022/01/07 05:46:14;;;;;;;15.25;7.80;;;;;;;2.07;91.03;100721.19;4997699;28;20073;-81
2022/01/07 05:48:41;;;;;;;14.30;7.55;;;;;;;2.09;91.43;100721.91;4997939;28;20401;-80
2022/01/07 05:51:08;;;;;;;10.57;6.85;;;;;;;2.16;91.00;100725.75;4999282;28;20054;-80
2022/01/07 05:53:34;;;;;;;13.45;6.85;;;;;;;2.14;91.77;100717.28;5001323;28;20058;-83
2022/01/07 05:56:01;;;;;;;9.77;5.55;;;;;;;2.23;91.51;100721.03;4999661;28;20085;-83
2022/01/07 05:58:28;;;;;;;10.57;5.30;;;;;;;2.42;90.28;100726.63;4999401;28;20082;-83
2022/01/07 06:00:55;;;;;;;11.30;5.22;;;;;;;2.27;90.94;100697.50;5000169;28;20090;-83
2022/01/07 06:03:23;;;;;;;7.70;5.00;;;;;;;2.42;90.67;100713.69;5000178;28;20106;-82
2022/01/07 06:05:50;;;;;;;12.07;5.60;;;;;;;2.45;90.64;100713.50;5006880;28;20500;-82
2022/01/07 06:08:16;;;;;;;11.27;5.32;;;;;;;2.36;91.28;100710.72;4998319;28;20094;-80
2022/01/07 06:10:43;;;;;;;11.32;5.28;;;;;;;2.51;91.31;100714.84;4996712;28;20137;-80
2022/01/07 06:13:10;;;;;;;13.57;4.70;;;;;;;2.35;92.26;100703.91;4999749;28;20064;-80
2022/01/07 06:15:36;;;;;;;11.95;5.10;;;;;;;2.35;92.15;100709.91;4996370;28;20136;-80
2022/01/07 06:18:04;;;;;;;9.35;5.28;;;;;;;2.35;92.35;100704.72;4996677;28;20054;-79
2022/01/07 06:20:32;;;;;;;13.68;5.25;;;;;;;2.37;92.06;100702.00;4998111;28;20113;-80
2022/01/07 06:22:59;;;;;;;8.38;5.32;;;;;;;2.50;92.45;100708.03;4997943;28;20133;-80
2022/01/07 06:25:25;;;;;;;9.90;4.90;;;;;;;2.46;91.84;100694.50;4999609;28;20066;-80
2022/01/07 06:27:52;;;;;;;10.52;4.97;;;;;;;2.46;92.05;100691.91;5006298;28;20085;-79
2022/01/07 06:30:19;;;;;;;12.82;4.88;;;;;;;2.54;92.26;100699.16;5018213;28;20101;-80
2022/01/07 06:32:45;;;;;;;9.27;5.32;;;;;;;2.55;92.42;100695.63;5019477;28;20133;-79
2022/01/07 06:35:12;;;;;;;10.18;4.90;;;;;;;2.44;92.68;100698.09;5020771;28;20485;-80
2022/01/07 06:37:40;;;;;;;9.27;5.15;;;;;;;2.37;92.17;100696.84;5019011;28;20085;-82
2022/01/07 06:40:08;;;;;;;10.27;5.10;;;;;;;2.41;92.14;100687.97;5019223;28;20069;-82
2022/01/07 06:42:53;;;;;;;17.38;5.47;;;;;;;2.44;92.53;100687.78;5023643;28;20081;-79
2022/01/07 06:45:26;;;;;;;10.82;5.70;;;;;;;2.30;92.65;100675.81;5022323;28;20050;-80
2022/01/07 06:47:53;;;;;;;;;;;;;;;2.49;92.83;100688.28;5021572;28;20053;-81
2022/01/07 06:50:21;;;;;;;9.70;5.07;;;;;;;2.50;92.69;100683.03;4998250;28;19921;-82
2022/01/07 06:53:00;;;;;;;7.72;4.75;;;;;;;2.54;92.48;100693.97;4999664;28;20058;-81
2022/01/07 06:55:47;;;;;;;7.78;5.00;;;;;;;2.38;92.67;100662.34;4997801;28;20046;-80
2022/01/07 06:58:31;;;;;;;7.35;5.00;;;;;;;2.43;92.68;100679.19;4995570;28;20505;-80
2022/01/07 07:01:00;;;;;;;10.75;5.18;;;;;;;2.59;92.06;100684.16;4996981;28;20074;-82
2022/01/07 07:06:17;;;;;;;8.88;4.93;;;;;;;2.56;91.76;100663.72;4996405;28;20051;-81
2022/01/07 07:08:45;;;;;;;9.80;5.30;;;;;;;2.60;91.56;100693.56;4993281;28;20054;-81
2022/01/07 07:11:11;;;;;;;21.23;14.15;;;;;;;2.52;91.58;100681.16;4996934;28;20424;-81
2022/01/07 07:13:38;;;;;;;13.00;7.78;;;;;;;2.60;91.57;100699.56;5002248;28;20073;-81
2022/01/07 07:16:05;;;;;;;9.85;4.78;;;;;;;2.58;91.77;100685.09;5016037;28;20489;-80
2022/01/07 07:18:47;;;;;;;8.43;5.00;;;;;;;2.67;91.63;100685.31;5015838;28;20125;-81
2022/01/07 07:21:13;;;;;;;8.80;4.72;;;;;;;2.67;91.30;100689.66;5016012;28;20057;-81
2022/01/07 07:23:40;;;;;;;7.15;4.68;;;;;;;2.62;90.90;100684.78;5009408;28;20046;-80
2022/01/07 07:26:08;;;;;;;6.60;4.57;;;;;;;2.75;91.92;100689.97;5012473;28;20089;-80
2022/01/07 07:28:37;;;;;;;13.23;8.70;;;;;;;2.82;91.94;100698.13;5000327;28;20113;-81
2022/01/07 07:31:19;;;;;;;16.52;11.93;;;;;;;2.78;91.78;100701.84;5013250;28;20077;-80
2022/01/07 07:36:36;;;;;;;8.95;4.70;;;;;;;2.81;90.33;100699.06;4997765;28;20109;-78
2022/01/07 07:39:09;;;;;;;15.77;7.72;;;;;;;2.74;91.45;100683.13;5012536;28;20046;-81
2022/01/07 07:41:41;;;;;;;9.18;5.72;;;;;;;2.77;91.64;100701.00;5021240;28;20057;-81
2022/01/07 07:44:08;;;;;;;8.05;5.35;;;;;;;2.78;92.14;100697.50;5020447;28;20045;-81
2022/01/07 07:46:41;;;;;;;7.25;4.53;;;;;;;2.93;92.29;100693.84;5020166;28;20073;-81
2022/01/07 07:49:11;;;;;;;6.85;4.40;;;;;;;3.03;91.16;100686.28;5009458;28;20077;-83
2022/01/07 07:51:57;;;;;;;12.55;7.53;;;;;;;2.99;91.93;100688.25;5001502;28;20102;-81
2022/01/07 07:54:45;;;;;;;7.75;4.63;;;;;;;2.96;92.36;100677.28;4999100;28;20475;-81
2022/01/07 07:57:23;;;;;;;6.93;5.75;;;;;;;3.05;91.88;100673.25;5001668;28;20145;-79
2022/01/07 07:59:57;;;;;;;6.18;4.72;;;;;;;3.32;91.01;100681.66;5019921;28;20518;-79
2022/01/07 08:05:34;;;;;;;5.72;3.97;;;;;;;3.17;90.29;100673.22;4957230;29;20094;-80
2022/01/07 08:17:54;;;;;;;11.32;6.60;;;;;;;3.35;90.11;100699.53;5000223;28;20057;-80
2022/01/07 08:20:21;;;;;;;5.80;4.00;;;;;;;3.29;89.75;100710.34;5025353;23;20145;-80
2022/01/07 08:22:48;;;;;;;5.20;3.42;;;;;;;3.20;89.56;100698.88;5016253;28;20145;-80
2022/01/07 08:28:40;;;;;;;8.68;4.13;;;;;;;3.16;89.63;100702.59;4962301;28;20445;-80
2022/01/07 08:34:53;;;;;;;7.05;3.95;;;;;;;3.17;89.18;100693.91;5017633;28;20109;-80
2022/01/07 08:37:00;;;;;;;6.50;4.13;;;;;;;3.12;89.95;100702.94;4981114;28;20078;-80
2022/01/07 08:39:27;;;;;;;9.35;4.70;;;;;;;3.07;90.10;100679.97;4995629;28;20438;-80
2022/01/07 08:41:54;;;;;;;6.45;4.47;;;;;;;3.19;91.32;100692.06;5001947;28;20133;-79
2022/01/07 08:44:26;;;;;;;6.00;4.60;;;;;;;3.33;91.02;100697.06;5000633;28;20129;-80
2022/01/07 08:46:54;;;;;;;7.22;4.93;;;;;;;3.38;90.90;100690.75;5001415;28;20507;-80
2022/01/07 08:49:21;;;;;;;6.05;3.75;;;;;;;3.34;90.24;100687.53;4987552;28;20086;-81
2022/01/07 08:51:47;;;;;;;5.47;3.50;;;;;;;3.46;89.78;100691.84;4984381;28;20520;-80
2022/01/07 08:54:14;;;;;;;5.97;4.30;;;;;;;3.56;88.37;100687.69;4984070;28;20054;-82
2022/01/07 08:56:41;;;;;;;3.83;3.10;;;;;;;3.62;87.71;100689.84;4980702;28;20079;-79
2022/01/07 08:59:07;;;;;;;4.95;4.13;;;;;;;3.69;88.06;100697.16;4991538;28;20077;-81
2022/01/07 09:01:34;;;;;;;7.47;5.75;;;;;;;3.73;88.46;100693.41;4999860;28;20046;-80
2022/01/07 09:04:02;;;;;;;4.82;3.28;;;;;;;3.76;88.70;100690.59;4999275;28;20137;-81
2022/01/07 09:06:28;;;;;;;4.80;4.15;;;;;;;3.74;88.75;100688.13;4999778;28;20074;-81
2022/01/07 09:08:55;;;;;;;5.82;3.72;;;;;;;3.77;87.87;100682.75;5000447;28;20077;-80
2022/01/07 09:11:22;;;;;;;5.35;4.35;;;;;;;3.76;87.89;100675.09;5000564;28;20050;-80
2022/01/07 09:13:51;;;;;;;6.25;3.67;;;;;;;3.79;88.04;100667.06;4990043;28;20079;-80
2022/01/07 09:16:19;;;;;;;4.60;2.72;;;;;;;3.91;86.83;100672.19;4977403;28;20046;-77
2022/01/07 09:18:45;;;;;;;4.30;3.70;;;;;;;3.99;86.91;100651.72;4976823;28;20063;-82
2022/01/07 09:21:14;;;;;;;4.13;2.90;;;;;;;4.02;86.65;100666.22;4981197;28;20133;-79
2022/01/07 09:23:41;;;;;;;3.03;2.70;;;;;;;3.88;86.69;100666.41;4981250;28;20588;-79
2022/01/07 09:26:09;;;;;;;3.05;2.60;;;;;;;3.94;87.50;100664.19;4980908;28;20424;-79
2022/01/07 09:28:35;;;;;;;3.13;2.83;;;;;;;3.82;87.75;100670.25;4980059;28;20117;-80
2022/01/07 09:31:04;;;;;;;3.88;2.95;;;;;;;3.97;86.76;100663.13;4980916;28;20097;-82
2022/01/07 09:33:30;;;;;;;4.90;3.28;;;;;;;3.86;86.83;100660.50;4975900;28;20061;-80
2022/01/07 09:36:35;;;;;;;4.00;2.85;;;;;;;3.87;86.29;100662.16;4978800;28;20082;-80
2022/01/07 09:39:01;;;;;;;3.55;2.95;;;;;;;3.73;86.97;100659.78;4979356;28;20063;-79
2022/01/07 09:41:32;;;;;;;3.97;3.20;;;;;;;3.82;87.68;100659.91;4979658;28;20540;-80
2022/01/07 09:44:01;;;;;;;3.70;3.00;;;;;;;3.75;86.99;100656.13;4989209;28;20102;-80
2022/01/07 09:46:28;;;;;;;6.00;4.55;;;;;;;3.82;87.78;100654.72;4999709;28;20050;-80
2022/01/07 09:48:54;;;;;;;8.45;6.93;;;;;;;3.86;87.44;100655.34;4998370;28;20086;-81
2022/01/07 09:51:22;;;;;;;5.40;3.78;;;;;;;3.90;86.60;100667.13;4999054;28;20084;-81
2022/01/07 09:53:50;;;;;;;4.28;2.97;;;;;;;3.99;86.36;100664.69;4995024;28;20090;-80
2022/01/07 09:56:19;;;;;;;4.95;3.05;;;;;;;3.94;86.31;100661.59;4986464;28;20082;-80
2022/01/07 09:58:46;;;;;;;3.85;2.88;;;;;;;3.93;86.59;100661.72;4986104;28;20145;-81
2022/01/07 10:01:16;;;;;;;3.50;2.70;;;;;;;3.82;86.27;100644.38;4981901;28;20050;-81
2022/01/07 10:03:45;;;;;;;7.90;4.00;;;;;;;3.92;86.32;100660.06;4979964;28;20055;-81
2022/01/07 10:06:20;;;;;;;3.70;3.05;;;;;;;3.93;86.66;100669.47;4981061;28;20057;-81
2022/01/07 10:09:01;;;;;;;3.95;3.00;;;;;;;4.04;86.45;100658.34;4981518;28;20078;-80
2022/01/07 10:11:28;;;;;;;4.65;3.00;;;;;;;4.09;86.44;100667.41;4982079;28;20054;-80
2022/01/07 10:14:17;;;;;;;3.75;2.85;;;;;;;4.16;85.69;100658.25;4984397;28;20054;-80
2022/01/07 10:16:53;;;;;;;3.33;2.72;;;;;;;4.19;85.35;100663.22;4984038;28;20051;-79
2022/01/07 10:19:34;;;;;;;3.05;2.53;;;;;;;4.16;86.00;100658.25;4983949;28;20141;-80
2022/01/07 10:22:04;;;;;;;3.53;2.50;;;;;;;4.23;85.79;100653.47;4981777;28;20101;-82
2022/01/07 10:24:35;;;;;;;3.42;2.78;;;;;;;4.45;85.53;100658.66;4981947;28;20153;-80
2022/01/07 10:27:12;;;;;;;3.65;2.90;;;;;;;4.41;85.30;100662.41;4981776;28;20078;-80
2022/01/07 10:29:40;;;;;;;2.92;2.03;;;;;;;4.20;84.88;100651.09;4982309;28;20043;-81
2022/01/07 10:32:27;;;;;;;3.53;3.03;;;;;;;4.36;85.80;100663.69;4983571;28;20066;-79
2022/01/07 10:35:12;;;;;;;2.55;2.35;;;;;;;4.31;86.17;100649.31;4985407;28;20047;-80
2022/01/07 10:37:48;;;;;;;3.38;2.53;;;;;;;4.40;85.53;100636.63;4984325;28;20054;-80
2022/01/07 10:40:31;;;;;;;5.03;2.80;;;;;;;4.54;86.03;100649.38;4982833;28;20082;-79
2022/01/07 10:43:15;;;;;;;4.13;2.97;;;;;;;4.57;85.07;100636.16;4982188;28;20051;-81
2022/01/07 10:45:44;;;;;;;3.63;3.08;;;;;;;4.54;85.01;100626.03;4982714;28;20047;-80
2022/01/07 10:48:11;;;;;;;5.15;3.00;;;;;;;4.65;85.51;100642.41;4982829;28;20047;-80
2022/01/07 10:50:41;;;;;;;3.60;2.90;;;;;;;4.82;84.20;100646.28;4982380;28;20047;-80
2022/01/07 10:53:21;;;;;;;3.70;3.00;;;;;;;4.96;84.98;100646.06;4981465;28;20058;-79
2022/01/07 10:56:10;;;;;;;2.85;2.40;;;;;;;5.02;84.37;100651.69;4981419;28;20114;-80
2022/01/07 10:58:55;;;;;;;4.18;2.97;;;;;;;5.18;83.04;100634.00;4982056;28;20051;-79
2022/01/07 11:01:38;;;;;;;4.65;3.05;;;;;;;5.33;83.54;100625.81;4981453;28;20047;-81
2022/01/07 11:04:08;;;;;;;3.92;2.97;;;;;;;5.64;83.26;100639.75;4980399;28;20118;-81
2022/01/07 11:06:37;;;;;;;4.93;3.08;;;;;;;5.71;81.85;100610.66;4981961;28;20050;-81
2022/01/07 11:09:09;;;;;;;2.75;2.35;;;;;;;5.91;82.23;100625.50;4983481;28;20209;-81
2022/01/07 11:11:48;;;;;;;5.57;3.20;;;;;;;5.99;81.49;100612.69;4986169;28;20090;-82
2022/01/07 11:14:19;;;;;;;12.10;7.63;;;;;;;6.14;80.47;100611.44;4985874;28;20051;-81
2022/01/07 11:17:04;;;;;;;7.13;2.97;;;;;;;6.09;80.21;100608.38;4986273;28;20046;-81
2022/01/07 11:19:35;;;;;;;5.53;4.40;;;;;;;6.00;80.32;100598.75;4985539;28;20109;-80
2022/01/07 11:22:04;;;;;;;4.43;3.40;;;;;;;6.19;80.21;100606.66;4984297;28;20097;-80
2022/01/07 11:24:43;;;;;;;2.92;2.55;;;;;;;6.05;79.18;100590.59;4984935;28;20078;-81
2022/01/07 11:27:13;;;;;;;4.57;3.22;;;;;;;6.13;79.23;100583.81;4984461;28;20043;-80
2022/01/07 11:29:46;;;;;;;4.35;2.60;;;;;;;5.91;79.26;100584.75;4984458;28;20102;-81
2022/01/07 11:32:29;;;;;;;;;;;;;;;5.92;80.15;100606.34;4984958;28;20242;-81
2022/01/07 11:34:57;;;;;;;4.55;2.83;;;;;;;6.08;78.22;100614.53;4983633;28;20006;-81
2022/01/07 11:37:37;;;;;;;6.55;3.40;;;;;;;6.14;78.47;100601.03;4982949;28;20126;-81
2022/01/07 11:40:05;;;;;;;4.60;2.70;;;;;;;6.15;79.17;100607.03;4983575;28;20066;-81
2022/01/07 11:42:44;;;;;;;6.18;2.95;;;;;;;6.11;79.13;100596.09;4982850;28;20047;-80
2022/01/07 11:45:30;;;;;;;4.40;2.90;;;;;;;6.15;79.00;100597.47;4981981;28;20055;-82
2022/01/07 11:47:58;;;;;;;3.47;2.70;;;;;;;5.91;80.30;100568.34;4983873;28;20046;-82
2022/01/07 11:50:25;;;;;;;6.40;2.72;;;;;;;5.94;79.42;100589.69;4983720;28;20072;-81
2022/01/07 11:53:01;;;;;;;6.22;3.25;;;;;;;5.87;79.49;100600.69;4983629;28;20042;-81
2022/01/07 11:55:35;;;;;;;5.40;2.92;;;;;;;5.73;80.89;100603.59;4983453;28;20055;-81
2022/01/07 11:58:08;;;;;;;6.05;3.60;;;;;;;5.66;81.11;100601.53;4985757;28;20051;-83
2022/01/07 12:00:52;;;;;;;4.03;2.92;;;;;;;5.51;81.39;100588.94;4984579;28;20078;-80
2022/01/07 12:03:34;;;;;;;5.57;3.40;;;;;;;5.54;81.17;100597.31;4982571;28;20486;-82
2022/01/07 12:06:07;;;;;;;6.97;4.00;;;;;;;5.58;82.02;100596.13;4984134;28;20469;-84
2022/01/07 12:09:28;;;;;;;4.38;2.90;;;;;;;5.45;81.81;100568.69;4983305;28;20050;-83
2022/01/07 12:12:56;;;;;;;;;;;;;;;;;;;;;
2022/01/07 12:15:58;;;;;;;7.03;3.90;;;;;;;5.46;82.44;100580.72;4964592;28;20059;-83
2022/01/07 12:19:19;;;;;;;7.47;3.80;;;;;;;5.42;82.13;100587.91;4984171;28;20054;-83
2022/01/07 12:32:47;;;;;;;;;;;;;;;;;;;;;
2022/01/07 12:36:01;;;;;;;11.48;4.20;;;;;;;5.48;83.43;100576.22;4915713;29;20200;-83
2022/01/07 12:38:31;;;;;;;9.27;4.20;;;;;;;5.52;82.23;100562.88;4926257;29;20089;-81
2022/01/07 12:41:04;;;;;;;9.15;4.15;;;;;;;5.59;82.09;100564.03;4946356;29;20060;-80
2022/01/07 12:43:34;;;;;;;10.05;4.57;;;;;;;5.86;81.04;100568.69;4987563;28;20722;-81
2022/01/07 12:46:03;;;;;;;20.45;7.03;;;;;;;5.97;81.30;100571.25;4989979;28;20058;-81
2022/01/07 12:48:36;;;;;;;15.13;4.82;;;;;;;5.80;80.61;100558.00;4986164;28;20477;-79
2022/01/07 12:51:06;;;;;;;10.90;4.88;;;;;;;5.80;81.65;100570.97;4982143;28;20047;-80
2022/01/07 12:53:33;;;;;;;9.00;4.72;;;;;;;5.77;81.67;100573.81;4981704;28;20047;-79
2022/01/07 12:56:21;;;;;;;11.20;4.68;;;;;;;5.61;82.42;100546.56;4984172;28;20051;-79
2022/01/07 12:58:48;;;;;;;10.57;5.45;;;;;;;5.70;80.99;100554.50;4983872;28;20082;-81
2022/01/07 13:01:22;;;;;;;8.00;4.22;;;;;;;5.67;82.08;100556.41;4981653;28;20046;-81
2022/01/07 13:04:01;;;;;;;9.63;4.78;;;;;;;5.51;81.95;100550.84;4984370;28;20066;-80
2022/01/07 13:06:29;;;;;;;10.70;4.82;;;;;;;5.53;82.51;100548.94;4981848;28;20156;-81
2022/01/07 13:12:28;;;;;;;10.07;4.10;;;;;;;5.36;82.60;100552.09;4947271;28;20062;-80
2022/01/07 13:17:42;;;;;;;14.18;5.03;;;;;;;5.19;84.12;100537.06;4975089;28;20047;-79
2022/01/07 13:20:11;;;;;;;8.70;4.88;;;;;;;5.34;84.04;100565.19;4957675;29;20106;-79
2022/01/07 13:22:40;;;;;;;12.38;5.00;;;;;;;5.20;85.32;100547.31;4973664;28;20082;-80
2022/01/07 13:25:12;;;;;;;8.55;4.80;;;;;;;5.33;85.29;100547.13;4974628;28;20061;-79
2022/01/07 13:27:42;;;;;;;12.18;6.60;;;;;;;5.13;84.72;100520.25;4976947;28;20489;-79
2022/01/07 13:30:13;;;;;;;15.80;5.13;;;;;;;5.33;84.85;100541.94;4973559;28;20070;-79
2022/01/07 13:32:45;;;;;;;15.75;5.78;;;;;;;5.29;84.27;100531.00;4974247;28;20297;-79
2022/01/07 13:35:23;;;;;;;10.02;5.53;;;;;;;5.28;84.04;100512.97;4976152;28;20065;-79
2022/01/07 13:37:59;;;;;;;14.30;5.50;;;;;;;5.32;83.50;100519.53;4977656;28;20422;-78
2022/01/07 13:40:34;;;;;;;13.90;5.43;;;;;;;5.22;83.16;100496.13;4978380;28;20058;-80
2022/01/07 13:43:15;;;;;;;11.95;5.78;;;;;;;5.47;83.13;100520.06;4977574;28;20498;-79
2022/01/07 13:45:43;;;;;;;10.50;4.70;;;;;;;5.45;82.18;100515.00;4977164;28;20089;-79
2022/01/07 13:48:18;;;;;;;13.35;5.47;;;;;;;5.40;83.28;100522.34;4976958;28;20046;-79
2022/01/07 13:50:53;;;;;;;14.98;5.32;;;;;;;5.36;83.02;100501.97;4977934;28;20077;-79
2022/01/07 13:53:24;;;;;;;9.88;5.38;;;;;;;5.36;82.22;100500.19;4978791;28;20059;-79
2022/01/07 13:55:51;;;;;;;12.23;6.47;;;;;;;5.43;82.57;100514.31;4978742;28;20505;-81
2022/01/07 13:58:23;;;;;;;18.83;9.13;;;;;;;5.46;82.21;100529.63;4977797;28;20055;-80
2022/01/07 14:00:54;;;;;;;12.68;5.32;;;;;;;5.46;82.44;100521.03;4978517;28;20058;-81
2022/01/07 14:03:21;;;;;;;9.65;5.97;;;;;;;5.39;82.71;100536.25;4979440;28;20074;-80
2022/01/07 14:06:01;;;;;;;9.98;5.00;;;;;;;5.30;82.68;100526.63;4978572;28;20453;-78
2022/01/07 14:08:29;;;;;;;9.35;4.70;;;;;;;5.32;81.75;100525.56;4978188;28;20053;-79
2022/01/07 14:10:56;;;;;;;8.60;4.28;;;;;;;5.34;82.38;100535.81;4978305;28;20147;-78
2022/01/07 14:13:24;;;;;;;12.05;4.60;;;;;;;5.30;82.66;100547.38;4975324;28;20050;-78